createdAt,value
2023-08-21T00:02:47.763Z,100.00
2023-08-21T00:05:38.816Z,100.00
2023-08-21T00:08:31.501Z,100.00
2023-08-21T00:11:22.923Z,100.00
2023-08-21T00:14:14.308Z,100.00
2023-08-21T00:17:05.805Z,100.00
2023-08-21T00:19:56.875Z,100.00
2023-08-21T00:22:48.136Z,100.00
2023-08-21T00:25:40.787Z,100.00
2023-08-21T00:28:34.261Z,100.00
2023-08-21T00:31:25.572Z,100.00
2023-08-21T00:34:16.809Z,100.00
2023-08-21T00:37:08.208Z,100.00
2023-08-21T00:39:59.511Z,100.00
2023-08-21T00:42:52.101Z,100.00
2023-08-21T00:45:44.752Z,100.00
2023-08-21T00:48:36.279Z,100.00
2023-08-21T00:51:27.236Z,100.00
2023-08-21T00:54:18.960Z,100.00
2023-08-21T00:57:10.363Z,100.00
2023-08-21T01:00:05.372Z,100.00
2023-08-21T01:02:56.681Z,100.00
2023-08-21T01:05:48.070Z,100.00
2023-08-21T01:08:44.146Z,100.00
2023-08-21T01:11:38.500Z,100.00
2023-08-21T01:14:31.063Z,100.00
2023-08-21T01:17:24.953Z,100.00
2023-08-21T01:20:17.348Z,100.00
2023-08-21T01:23:08.421Z,100.00
2023-08-21T01:26:01.161Z,100.00
2023-08-21T01:28:52.193Z,100.00
2023-08-21T01:31:49.052Z,100.00
2023-08-21T01:34:41.282Z,100.00
2023-08-21T01:37:32.901Z,100.00
2023-08-21T01:40:24.198Z,100.00
2023-08-21T01:43:16.491Z,100.00
2023-08-21T01:46:08.508Z,100.00
2023-08-21T01:48:59.786Z,100.00
2023-08-21T01:51:51.101Z,100.00
2023-08-21T01:54:43.318Z,100.00
2023-08-21T01:57:34.688Z,100.00
2023-08-21T02:00:27.226Z,100.00
2023-08-21T02:03:18.688Z,100.00
2023-08-21T02:06:09.823Z,100.00
2023-08-21T02:09:01.152Z,100.00
2023-08-21T02:11:52.284Z,100.00
2023-08-21T02:14:43.405Z,100.00
2023-08-21T02:17:36.061Z,100.00
2023-08-21T02:20:27.010Z,100.00
2023-08-21T02:23:18.365Z,100.00
2023-08-21T02:26:09.288Z,100.00
2023-08-21T02:29:00.687Z,100.00
2023-08-21T02:31:51.984Z,100.00
2023-08-21T02:34:44.571Z,100.00
2023-08-21T02:37:36.004Z,100.00
2023-08-21T02:40:27.046Z,100.00
2023-08-21T02:43:18.390Z,100.00
2023-08-21T02:46:09.833Z,100.00
2023-08-21T02:49:01.013Z,100.00
2023-08-21T02:51:53.811Z,100.00
2023-08-21T02:54:45.079Z,100.00
2023-08-21T02:57:36.536Z,100.00
2023-08-21T03:00:27.967Z,100.00
2023-08-21T03:03:19.414Z,100.00
2023-08-21T03:06:10.660Z,100.00
2023-08-21T03:09:03.471Z,100.00
2023-08-21T03:11:54.736Z,100.00
2023-08-21T03:14:46.169Z,100.00
2023-08-21T03:17:37.539Z,100.00
2023-08-21T03:20:28.670Z,100.00
2023-08-21T03:23:19.966Z,100.00
2023-08-21T03:26:12.727Z,100.00
2023-08-21T03:29:03.878Z,100.00
2023-08-21T03:31:55.770Z,100.00
2023-08-21T03:34:47.455Z,100.00
2023-08-21T03:37:38.627Z,100.00
2023-08-21T03:40:29.970Z,100.00
2023-08-21T03:43:22.627Z,100.00
2023-08-21T03:46:13.942Z,100.00
2023-08-21T03:49:05.262Z,100.00
2023-08-21T03:51:56.694Z,100.00
2023-08-21T03:54:48.012Z,100.00
2023-08-21T03:57:39.417Z,100.00
2023-08-21T04:00:32.069Z,100.00
2023-08-21T04:03:23.464Z,100.00
2023-08-21T04:06:14.759Z,100.00
2023-08-21T04:09:07.394Z,100.00
2023-08-21T04:11:58.497Z,100.00
2023-08-21T04:14:49.865Z,100.00
2023-08-21T04:17:42.583Z,100.00
2023-08-21T04:20:33.959Z,100.00
2023-08-21T04:23:25.477Z,100.00
2023-08-21T04:26:16.758Z,100.00
2023-08-21T04:29:07.935Z,100.00
2023-08-21T04:31:59.230Z,100.00
2023-08-21T04:34:51.724Z,100.00
2023-08-21T04:37:45.673Z,100.00
2023-08-21T04:40:37.125Z,100.00
2023-08-21T04:43:28.377Z,100.00
2023-08-21T04:46:20.921Z,100.00
2023-08-21T04:49:12.145Z,100.00
2023-08-21T04:52:04.941Z,100.00
2023-08-21T04:54:56.218Z,100.00
2023-08-21T04:57:47.166Z,100.00
2023-08-21T05:00:38.679Z,100.00
2023-08-21T05:03:29.914Z,100.00
2023-08-21T05:06:21.195Z,100.00
2023-08-21T05:09:13.926Z,100.00
2023-08-21T05:12:05.331Z,100.00
2023-08-21T05:14:56.426Z,100.00
2023-08-21T05:17:47.735Z,100.00
2023-08-21T05:20:38.864Z,100.00
2023-08-21T05:23:30.325Z,100.00
2023-08-21T05:26:22.874Z,100.00
2023-08-21T05:29:14.142Z,100.00
2023-08-21T05:32:05.668Z,100.00
2023-08-21T05:34:56.762Z,100.00
2023-08-21T05:37:47.948Z,100.00
2023-08-21T05:40:39.446Z,100.00
2023-08-21T05:43:32.150Z,100.00
2023-08-21T05:46:23.180Z,100.00
2023-08-21T05:49:14.493Z,100.00
2023-08-21T05:52:05.787Z,100.00
2023-08-21T05:54:57.106Z,100.00
2023-08-21T05:57:48.553Z,100.00
2023-08-21T06:00:41.468Z,100.00
2023-08-21T06:03:33.366Z,100.00
2023-08-21T06:06:24.687Z,100.00
2023-08-21T06:09:18.460Z,100.00
2023-08-21T06:12:09.994Z,100.00
2023-08-21T06:15:01.301Z,100.00
2023-08-21T06:17:54.067Z,100.00
2023-08-21T06:20:46.142Z,100.00
2023-08-21T06:23:37.158Z,100.00
2023-08-21T06:26:28.456Z,100.00
2023-08-21T06:29:21.397Z,100.00
2023-08-21T06:32:12.936Z,100.00
2023-08-21T06:35:05.746Z,100.00
2023-08-21T06:37:56.604Z,100.00
2023-08-21T06:40:48.082Z,100.00
2023-08-21T06:43:40.987Z,100.00
2023-08-21T06:46:33.987Z,100.00
2023-08-21T06:49:25.404Z,100.00
2023-08-21T06:52:18.039Z,100.00
2023-08-21T06:55:09.424Z,100.00
2023-08-21T06:58:00.560Z,100.00
2023-08-21T07:00:52.077Z,100.00
2023-08-21T07:03:44.283Z,100.00
2023-08-21T07:06:35.704Z,100.00
2023-08-21T07:09:28.322Z,100.00
2023-08-21T07:12:19.676Z,100.00
2023-08-21T07:15:11.459Z,100.00
2023-08-21T07:18:02.868Z,100.00
2023-08-21T07:20:55.295Z,100.00
2023-08-21T07:23:46.336Z,100.00
2023-08-21T07:26:39.054Z,100.00
2023-08-21T07:29:31.487Z,100.00
2023-08-21T07:32:22.468Z,100.00
2023-08-21T07:35:13.813Z,100.00
2023-08-21T07:38:05.512Z,100.00
2023-08-21T07:41:03.994Z,100.00
2023-08-21T07:43:56.647Z,100.00
2023-08-21T07:46:47.890Z,100.00
2023-08-21T07:49:39.174Z,100.00
2023-08-21T07:52:30.509Z,100.00
2023-08-21T07:55:21.740Z,100.00
2023-08-21T07:58:13.076Z,100.00
2023-08-21T08:01:06.124Z,100.00
2023-08-21T08:04:04.521Z,100.00
2023-08-21T08:06:55.777Z,100.00
2023-08-21T08:09:48.249Z,100.00
2023-08-21T08:12:43.113Z,100.00
2023-08-21T08:15:35.855Z,100.00
2023-08-21T08:18:28.581Z,100.00
2023-08-21T08:21:20.129Z,100.00
2023-08-21T08:24:11.150Z,100.00
2023-08-21T08:27:02.956Z,100.00
2023-08-21T08:29:54.209Z,100.00
2023-08-21T08:32:46.969Z,100.00
2023-08-21T08:35:41.623Z,100.00
2023-08-21T08:38:33.131Z,100.00
2023-08-21T08:41:29.357Z,100.00
2023-08-21T08:44:21.432Z,100.00
2023-08-21T08:47:13.415Z,100.00
2023-08-21T08:50:05.726Z,100.00
2023-08-21T08:53:10.055Z,100.00
2023-08-21T08:56:07.150Z,100.00
2023-08-21T08:58:58.687Z,100.00
2023-08-21T09:01:50.063Z,100.00
2023-08-21T09:04:41.374Z,100.00
2023-08-21T09:07:32.661Z,100.00
2023-08-21T09:10:27.268Z,100.00
2023-08-21T09:13:19.306Z,100.00
2023-08-21T09:16:10.682Z,100.00
2023-08-21T09:19:01.621Z,100.00
2023-08-21T09:21:52.963Z,100.00
2023-08-21T09:25:02.032Z,100.00
2023-08-21T09:27:55.375Z,100.00
2023-08-21T09:30:47.700Z,100.00
2023-08-21T09:33:38.906Z,100.00
2023-08-21T09:36:30.316Z,100.00
2023-08-21T09:39:21.616Z,100.00
2023-08-21T09:42:13.121Z,100.00
2023-08-21T09:45:06.363Z,100.00
2023-08-21T09:47:59.439Z,100.00
2023-08-21T09:50:52.689Z,100.00
2023-08-21T09:53:44.022Z,100.00
2023-08-21T09:56:35.745Z,100.00
2023-08-21T09:59:27.249Z,100.00
2023-08-21T10:02:20.235Z,100.00
2023-08-21T10:05:13.497Z,100.00
2023-08-21T10:08:05.547Z,100.00
2023-08-21T10:10:57.077Z,100.00
2023-08-21T10:13:48.698Z,100.00
2023-08-21T10:16:40.023Z,100.00
2023-08-21T10:19:34.325Z,100.00
2023-08-21T10:22:41.636Z,100.00
2023-08-21T10:25:32.836Z,100.00
2023-08-21T10:28:24.341Z,100.00
2023-08-21T10:31:28.227Z,100.00
2023-08-21T10:34:20.768Z,100.00
2023-08-21T10:37:14.267Z,100.00
2023-08-21T10:40:07.400Z,100.00
2023-08-21T10:42:58.759Z,100.00
2023-08-21T10:45:56.475Z,100.00
2023-08-21T10:48:47.680Z,100.00
2023-08-21T10:51:39.301Z,100.00
2023-08-21T10:54:44.199Z,100.00
2023-08-21T10:57:35.752Z,100.00
2023-08-21T11:00:27.201Z,100.00
2023-08-21T11:03:18.577Z,100.00
2023-08-21T11:06:10.811Z,100.00
2023-08-21T11:09:02.151Z,100.00
2023-08-21T11:11:54.888Z,100.00
2023-08-21T11:14:46.610Z,100.00
2023-08-21T11:17:38.146Z,100.00
2023-08-21T11:20:30.053Z,100.00
2023-08-21T11:23:21.340Z,100.00
2023-08-21T11:29:08.846Z,100.00
2023-08-21T11:31:59.978Z,100.00
2023-08-21T11:34:51.762Z,100.00
2023-08-21T11:37:46.718Z,100.00
2023-08-21T11:40:38.048Z,100.00
2023-08-21T11:43:38.997Z,100.00
2023-08-21T11:46:31.530Z,100.00
2023-08-21T11:49:23.590Z,100.00
2023-08-21T11:52:15.035Z,100.00
2023-08-21T11:55:09.662Z,100.00
2023-08-21T11:58:03.654Z,100.00
2023-08-21T12:00:54.692Z,100.00
2023-08-21T12:03:50.880Z,100.00
2023-08-21T12:06:45.434Z,100.00
2023-08-21T12:09:36.591Z,100.00
2023-08-21T12:12:28.435Z,100.00
2023-08-21T12:15:19.844Z,100.00
2023-08-21T12:18:11.175Z,100.00
2023-08-21T12:21:03.912Z,100.00
2023-08-21T12:23:55.423Z,100.00
2023-08-21T12:26:50.859Z,99.39
2023-08-21T12:29:42.746Z,100.00
2023-08-21T12:32:34.103Z,100.00
2023-08-21T12:35:25.532Z,100.00
2023-08-21T12:38:18.198Z,97.40
2023-08-21T12:41:09.530Z,98.88
2023-08-21T12:44:01.054Z,97.98
2023-08-21T12:46:52.786Z,98.67
2023-08-21T12:49:44.432Z,96.87
2023-08-21T12:52:35.564Z,94.51
2023-08-21T12:55:28.513Z,96.88
2023-08-21T12:58:21.955Z,97.24
2023-08-21T13:01:13.599Z,90.70
2023-08-21T13:04:05.054Z,91.18
2023-08-21T13:06:56.165Z,93.45
2023-08-21T13:09:47.428Z,94.79
2023-08-21T13:12:40.657Z,96.88
2023-08-21T13:15:32.196Z,97.74
2023-08-21T13:18:23.657Z,99.07
2023-08-21T13:21:14.996Z,97.21
2023-08-21T13:24:06.477Z,94.51
2023-08-21T13:26:57.761Z,93.83
2023-08-21T13:29:52.215Z,93.90
2023-08-21T13:32:43.774Z,90.96
2023-08-21T13:35:35.214Z,91.75
2023-08-21T13:38:26.793Z,84.71
2023-08-21T13:41:17.994Z,85.35
2023-08-21T13:44:10.120Z,85.77
2023-08-21T13:47:02.902Z,87.93
2023-08-21T13:49:54.147Z,85.51
2023-08-21T13:52:45.591Z,87.34
2023-08-21T13:55:36.700Z,87.11
2023-08-21T13:58:27.868Z,82.61
2023-08-21T14:01:19.455Z,82.12
2023-08-21T14:04:12.108Z,81.01
2023-08-21T14:07:03.541Z,82.83
2023-08-21T14:09:54.999Z,81.06
2023-08-21T14:12:46.358Z,80.44
2023-08-21T14:15:37.697Z,78.19
2023-08-21T14:18:29.275Z,76.17
2023-08-21T14:21:22.072Z,75.52
2023-08-21T14:24:13.666Z,75.96
2023-08-21T14:27:04.972Z,76.87
2023-08-21T14:29:56.330Z,76.41
2023-08-21T14:32:47.922Z,75.81
2023-08-21T14:35:39.380Z,75.66
2023-08-21T14:38:32.121Z,76.87
2023-08-21T14:41:23.981Z,76.76
2023-08-21T14:44:16.726Z,74.66
2023-08-21T14:47:08.760Z,74.04
2023-08-21T14:50:00.568Z,72.69
2023-08-21T14:52:51.878Z,72.37
2023-08-21T14:55:44.641Z,71.58
2023-08-21T14:58:35.867Z,70.17
2023-08-21T15:01:27.163Z,67.57
2023-08-21T15:04:19.436Z,67.19
2023-08-21T15:07:10.595Z,66.86
2023-08-21T15:10:02.141Z,65.71
2023-08-21T15:12:55.017Z,68.48
2023-08-21T15:15:46.477Z,70.27
2023-08-21T15:18:37.968Z,69.43
2023-08-21T15:21:29.478Z,71.49
2023-08-21T15:24:20.870Z,72.15
2023-08-21T15:27:14.536Z,69.36
2023-08-21T15:30:08.337Z,71.09
2023-08-21T15:32:59.328Z,70.86
2023-08-21T15:35:50.862Z,71.64
2023-08-21T15:38:42.388Z,72.19
2023-08-21T15:41:33.571Z,71.51
2023-08-21T15:44:24.886Z,71.74
2023-08-21T15:50:20.735Z,72.51
2023-08-21T15:53:11.921Z,74.19
2023-08-21T15:56:03.264Z,75.38
2023-08-21T15:58:55.511Z,74.48
2023-08-21T16:01:46.968Z,73.61
2023-08-21T16:04:39.458Z,73.65
2023-08-21T16:07:31.271Z,74.28
2023-08-21T16:10:22.674Z,74.71
2023-08-21T16:13:13.987Z,75.76
2023-08-21T16:16:05.347Z,75.49
2023-08-21T16:18:56.573Z,76.01
2023-08-21T16:21:50.844Z,77.18
2023-08-21T16:24:41.949Z,78.25
2023-08-21T16:27:33.226Z,78.94
2023-08-21T16:30:24.611Z,80.02
2023-08-21T16:33:15.938Z,80.70
2023-08-21T16:36:07.820Z,80.90
2023-08-21T16:39:00.381Z,80.42
2023-08-21T16:41:51.639Z,80.72
2023-08-21T16:44:42.844Z,82.57
2023-08-21T16:47:34.334Z,83.53
2023-08-21T16:50:25.747Z,85.09
2023-08-21T16:53:23.295Z,86.67
2023-08-21T16:56:17.673Z,86.45
2023-08-21T16:59:08.938Z,87.19
2023-08-21T17:02:00.321Z,85.69
2023-08-21T17:04:51.788Z,86.59
2023-08-21T17:07:45.120Z,87.13
2023-08-21T17:10:37.565Z,87.91
2023-08-21T17:13:32.188Z,87.46
2023-08-21T17:16:23.992Z,85.20
2023-08-21T17:19:15.487Z,86.40
2023-08-21T17:22:08.198Z,88.60
2023-08-21T17:25:13.674Z,90.14
2023-08-21T17:28:06.698Z,91.63
2023-08-21T17:30:59.507Z,92.10
2023-08-21T17:33:50.947Z,93.91
2023-08-21T17:36:42.443Z,94.16
2023-08-21T17:39:34.238Z,94.40
2023-08-21T17:42:25.692Z,95.75
2023-08-21T17:45:17.133Z,97.67
2023-08-21T17:48:10.296Z,98.61
2023-08-21T17:51:01.627Z,100.00
2023-08-21T17:53:53.066Z,100.00
2023-08-21T17:56:44.272Z,100.00
2023-08-21T17:59:35.841Z,100.00
2023-08-21T18:02:28.049Z,100.00
2023-08-21T18:05:20.918Z,100.00
2023-08-21T18:08:12.620Z,100.00
2023-08-21T18:11:10.755Z,100.00
2023-08-21T18:14:02.226Z,100.00
2023-08-21T18:16:57.751Z,100.00
2023-08-21T18:19:51.956Z,100.00
2023-08-21T18:22:49.710Z,100.00
2023-08-21T18:25:43.228Z,100.00
2023-08-21T18:28:35.482Z,100.00
2023-08-21T18:31:28.136Z,100.00
2023-08-21T18:34:19.281Z,100.00
2023-08-21T18:37:11.063Z,100.00
2023-08-21T18:40:05.479Z,100.00
2023-08-21T18:42:57.505Z,100.00
2023-08-21T18:45:51.984Z,100.00
2023-08-21T18:48:44.739Z,100.00
2023-08-21T18:51:36.120Z,100.00
2023-08-21T18:54:30.352Z,100.00
2023-08-21T18:57:23.548Z,100.00
2023-08-21T19:00:22.110Z,100.00
2023-08-21T19:03:15.668Z,100.00
2023-08-21T19:06:07.099Z,100.00
2023-08-21T19:09:06.185Z,100.00
2023-08-21T19:11:57.563Z,100.00
2023-08-21T19:14:50.579Z,100.00
2023-08-21T19:17:42.057Z,100.00
2023-08-21T19:20:33.759Z,100.00
2023-08-21T19:23:25.253Z,100.00
2023-08-21T19:26:16.863Z,100.00
2023-08-21T19:29:08.224Z,100.00
2023-08-21T19:32:09.244Z,100.00
2023-08-21T19:35:07.091Z,100.00
2023-08-21T19:37:58.295Z,100.00
2023-08-21T19:40:50.704Z,100.00
2023-08-21T19:43:44.444Z,100.00
2023-08-21T19:46:36.050Z,100.00
2023-08-21T19:49:27.545Z,100.00
2023-08-21T19:52:20.467Z,100.00
2023-08-21T19:55:12.008Z,100.00
2023-08-21T19:58:03.255Z,100.00
2023-08-21T20:00:55.955Z,100.00
2023-08-21T20:03:47.317Z,100.00
2023-08-21T20:06:38.764Z,100.00
2023-08-21T20:09:31.605Z,100.00
2023-08-21T20:12:23.180Z,100.00
2023-08-21T20:15:14.887Z,100.00
2023-08-21T20:18:09.828Z,100.00
2023-08-21T20:21:01.109Z,100.00
2023-08-21T20:23:53.366Z,100.00
2023-08-21T20:26:45.762Z,100.00
2023-08-21T20:29:37.422Z,100.00
2023-08-21T20:32:28.824Z,100.00
2023-08-21T20:35:22.008Z,100.00
2023-08-21T20:38:13.088Z,100.00
2023-08-21T20:41:05.217Z,100.00
2023-08-21T20:43:57.837Z,100.00
2023-08-21T20:46:49.323Z,100.00
2023-08-21T20:49:41.690Z,100.00
2023-08-21T20:52:33.118Z,100.00
2023-08-21T20:55:24.288Z,100.00
2023-08-21T20:58:18.337Z,100.00
2023-08-21T21:01:10.954Z,100.00
2023-08-21T21:04:02.469Z,100.00
2023-08-21T21:06:54.106Z,100.00
2023-08-21T21:09:46.801Z,100.00
2023-08-21T21:12:38.946Z,100.00
2023-08-21T21:15:30.437Z,100.00
2023-08-21T21:18:23.536Z,100.00
2023-08-21T21:21:14.874Z,100.00
2023-08-21T21:24:13.234Z,100.00
2023-08-21T21:27:04.728Z,100.00
2023-08-21T21:29:55.810Z,100.00
2023-08-21T21:32:47.023Z,100.00
2023-08-21T21:35:39.835Z,100.00
2023-08-21T21:38:31.375Z,100.00
2023-08-21T21:41:22.765Z,100.00
2023-08-21T21:44:13.946Z,100.00
2023-08-21T21:47:05.424Z,100.00
2023-08-21T21:49:56.361Z,100.00
2023-08-21T21:52:49.262Z,100.00
2023-08-21T21:55:42.235Z,100.00
2023-08-21T21:58:33.590Z,100.00
2023-08-21T22:01:25.061Z,100.00
2023-08-21T22:04:16.197Z,100.00
2023-08-21T22:07:07.525Z,100.00
2023-08-21T22:10:00.173Z,100.00
2023-08-21T22:12:51.891Z,100.00
2023-08-21T22:15:43.022Z,100.00
2023-08-21T22:18:34.194Z,100.00
2023-08-21T22:21:25.522Z,100.00
2023-08-21T22:24:16.800Z,100.00
2023-08-21T22:27:09.625Z,100.00
2023-08-21T22:30:00.963Z,100.00
2023-08-21T22:32:52.385Z,100.00
2023-08-21T22:35:43.756Z,100.00
2023-08-21T22:38:34.851Z,100.00
2023-08-21T22:41:26.204Z,100.00
2023-08-21T22:44:18.793Z,100.00
2023-08-21T22:47:11.214Z,100.00
2023-08-21T22:50:02.356Z,100.00
2023-08-21T22:52:53.828Z,100.00
2023-08-21T22:55:53.348Z,100.00
2023-08-21T22:58:45.611Z,100.00
2023-08-21T23:01:38.474Z,100.00
2023-08-21T23:04:29.958Z,100.00
2023-08-21T23:07:21.399Z,100.00
2023-08-21T23:10:13.014Z,100.00
2023-08-21T23:13:04.487Z,100.00
2023-08-21T23:15:55.626Z,100.00
2023-08-21T23:18:48.861Z,100.00
2023-08-21T23:21:40.413Z,100.00
2023-08-21T23:24:31.791Z,100.00
2023-08-21T23:27:23.176Z,100.00
2023-08-21T23:30:16.018Z,100.00
2023-08-21T23:33:07.369Z,100.00
2023-08-21T23:36:00.124Z,100.00
2023-08-21T23:38:52.679Z,100.00
2023-08-21T23:41:44.111Z,100.00
2023-08-21T23:44:35.485Z,100.00
2023-08-21T23:47:27.117Z,100.00
2023-08-21T23:50:18.633Z,100.00
2023-08-21T23:53:11.194Z,100.00
2023-08-21T23:56:02.687Z,100.00
2023-08-21T23:58:54.115Z,100.00
